Time;durP1;ratioP1;P1;durP2;ratioP2;P2;SDS_P1;SDS_P2;PMS_P1;PMS_P2;Temp;Humidity;BMP_temperature;BMP_pressure;BME280_temperature;BME280_humidity;BME280_pressure;Samples;Min_cycle;Max_cycle;Signal;HPM_P1;HPM_P2
2023/07/15 00:01:48;;;;;;;2.75;2.50;;;20.50;94.30;;;;;;4934866;29;20429;-63
2023/07/15 00:04:14;;;;;;;4.05;2.50;;;20.40;94.40;;;;;;4935105;29;20031;-65
2023/07/15 00:06:40;;;;;;;2.97;2.40;;;20.40;94.50;;;;;;4935457;29;20036;-64
2023/07/15 00:09:06;;;;;;;3.03;2.10;;;20.30;94.60;;;;;;4934104;29;20086;-64
2023/07/15 00:11:50;;;;;;;4.65;3.00;;;20.30;94.90;;;;;;4935323;29;20462;-64
2023/07/15 00:14:19;;;;;;;3.42;2.83;;;20.20;95.20;;;;;;4931529;29;20074;-63
2023/07/15 00:16:44;;;;;;;3.13;2.78;;;20.20;95.40;;;;;;4934375;29;20035;-64
2023/07/15 00:19:10;;;;;;;4.25;2.72;;;20.10;96.10;;;;;;4934466;29;20031;-63
2023/07/15 00:21:36;;;;;;;2.78;2.30;;;20.10;96.20;;;;;;4934690;29;20075;-63
2023/07/15 00:24:02;;;;;;;4.18;2.60;;;20.10;96.60;;;;;;4934108;29;20607;-63
2023/07/15 00:26:32;;;;;;;3.35;2.45;;;20.00;97.00;;;;;;4934771;29;20039;-64
2023/07/15 00:28:58;;;;;;;;;;;20.00;97.30;;;;;;4934146;29;20483;-63
2023/07/15 00:31:24;;;;;;;3.70;2.35;;;19.90;97.60;;;;;;4923842;29;19907;-64
2023/07/15 00:33:49;;;;;;;5.00;2.67;;;19.80;98.10;;;;;;4933263;29;20386;-63
2023/07/15 00:36:18;;;;;;;3.35;2.50;;;;;;;;;;4934904;29;20044;-63
2023/07/15 00:38:45;;;;;;;3.33;2.90;;;;;;;;;;4934060;29;20358;-65
2023/07/15 00:41:18;;;;;;;3.80;2.53;;;;;;;;;;4934243;29;20020;-64
2023/07/15 00:46:23;;;;;;;3.85;2.90;;;;;;;;;;4934243;29;20067;-63
2023/07/15 00:48:58;;;;;;;3.35;2.72;;;;;;;;;;4930116;29;20181;-64
2023/07/15 00:51:26;;;;;;;3.10;2.80;;;;;;;;;;4934261;29;20032;-64
2023/07/15 00:53:53;;;;;;;2.97;2.38;;;;;;;;;;4933345;29;20357;-63
2023/07/15 00:56:19;;;;;;;3.72;2.50;;;;;;;;;;4925462;29;20474;-63
2023/07/15 00:58:45;;;;;;;2.88;2.40;;;;;;;;;;4920984;29;20019;-65
2023/07/15 01:01:12;;;;;;;3.17;2.53;;;;;;;;;;4934221;29;20500;-64
2023/07/15 01:03:40;;;;;;;3.55;2.83;;;;;;;;;;4934792;29;20103;-63
2023/07/15 01:06:06;;;;;;;3.50;2.67;;;;;;;;;;4922249;29;20044;-63
2023/07/15 01:08:32;;;;;;;3.35;2.80;;;;;;;;;;4934028;29;20119;-63
2023/07/15 01:10:58;;;;;;;5.60;3.30;;;;;;;;;;4933270;29;20102;-63
2023/07/15 01:13:24;;;;;;;4.80;3.35;;;;;;;;;;4934091;29;20362;-64
2023/07/15 01:15:50;;;;;;;4.45;3.22;;;;;;;;;;4933442;29;20557;-64
2023/07/15 01:18:16;;;;;;;3.25;2.70;;;;;;;;;;4934020;29;20110;-64
2023/07/15 01:20:42;;;;;;;3.05;2.58;;;;;;;;;;4933512;29;20066;-65
2023/07/15 01:23:08;;;;;;;5.88;3.03;;;;;;;;;;4930853;29;20035;-64
2023/07/15 01:25:34;;;;;;;4.05;2.90;;;;;;;;;;4933509;29;20072;-64
2023/07/15 01:28:00;;;;;;;3.53;2.33;;;;;;;;;;4933435;29;20418;-64
2023/07/15 01:30:26;;;;;;;5.00;2.78;;;;;;;;;;4933073;29;20032;-63
2023/07/15 01:32:53;;;;;;;3.45;2.70;;;;;;;;;;4933101;29;20035;-63
2023/07/15 01:35:19;;;;;;;5.20;3.00;;;;;;;;;;4932442;29;20052;-63
2023/07/15 01:37:45;;;;;;;4.07;3.22;;;;;;;;;;4916234;29;20043;-65
2023/07/15 01:40:13;;;;;;;3.05;2.38;;;;;;;;;;4914429;29;20090;-64
2023/07/15 01:42:40;;;;;;;6.43;2.85;;;;;;;;;;4926927;29;20020;-63
2023/07/15 01:45:09;;;;;;;3.47;2.70;;;;;;;;;;4932588;29;20102;-63
2023/07/15 01:47:35;;;;;;;3.72;2.95;;;;;;;;;;4934162;29;20599;-63
2023/07/15 01:50:01;;;;;;;4.50;3.13;;;;;;;;;;4932804;29;20042;-63
2023/07/15 01:52:27;;;;;;;3.70;2.78;;;;;;;;;;4934213;29;20127;-63
2023/07/15 01:54:53;;;;;;;5.35;3.28;;;;;;;;;;4931091;29;20485;-63
2023/07/15 01:57:20;;;;;;;3.33;2.72;;;;;;;;;;4919672;29;20039;-63
2023/07/15 01:59:46;;;;;;;2.80;2.53;;;;;;;;;;4918322;29;20020;-64
2023/07/15 02:02:12;;;;;;;5.55;2.90;;;;;;;;;;4933799;29;20027;-64
2023/07/15 02:04:38;;;;;;;3.67;2.70;;;;;;;;;;4933294;29;20496;-63
2023/07/15 02:07:05;;;;;;;3.28;2.70;;;;;;;;;;4933147;29;20122;-63
2023/07/15 02:09:32;;;;;;;3.50;2.67;;;19.40;99.90;;;;;;4933370;29;20082;-63
2023/07/15 02:11:58;;;;;;;3.88;2.50;;;19.30;99.90;;;;;;4931295;29;20381;-63
2023/07/15 02:14:24;;;;;;;7.43;3.30;;;19.20;99.90;;;;;;4923985;29;20032;-63
2023/07/15 02:16:49;;;;;;;4.60;3.03;;;19.20;99.90;;;;;;4932884;29;20039;-64
2023/07/15 02:19:15;;;;;;;3.58;2.80;;;19.10;99.90;;;;;;4933273;29;20038;-64
2023/07/15 02:21:40;;;;;;;3.85;2.70;;;19.00;99.90;;;;;;4933856;29;20015;-64
2023/07/15 02:24:06;;;;;;;3.60;3.03;;;;;;;;;;4932455;29;20770;-64
2023/07/15 02:26:32;;;;;;;4.18;2.85;;;;;;;;;;4933557;29;20366;-64
2023/07/15 02:28:58;;;;;;;2.83;2.40;;;;;;;;;;4930655;29;20028;-64
2023/07/15 02:31:24;;;;;;;3.95;3.00;;;;;;;;;;4932376;29;20445;-64
2023/07/15 02:33:50;;;;;;;3.22;2.58;;;;;;;;;;4931638;29;20052;-64
2023/07/15 02:36:18;;;;;;;4.07;3.08;;;;;;;;;;4933619;29;20031;-64
2023/07/15 02:38:44;;;;;;;6.13;3.17;;;;;;;;;;4933133;29;20103;-65
2023/07/15 02:41:10;;;;;;;6.05;3.47;;;;;;;;;;4921621;29;20525;-65
2023/07/15 02:43:36;;;;;;;4.65;3.88;;;;;;;;;;4933481;29;20500;-64
2023/07/15 02:46:02;;;;;;;3.85;2.90;;;;;;;;;;4932159;29;20035;-64
2023/07/15 02:48:28;;;;;;;4.35;3.28;;;;;;;;;;4928246;29;20477;-64
2023/07/15 02:50:55;;;;;;;3.20;2.90;;;;;;;;;;4935736;29;20092;-65
2023/07/15 02:53:21;;;;;;;5.45;3.28;;;;;;;;;;4936549;29;20032;-64
2023/07/15 02:55:48;;;;;;;4.03;3.10;;;;;;;;;;4932375;29;20034;-65
2023/07/15 02:58:14;;;;;;;6.47;3.80;;;;;;;;;;4936799;29;20030;-65
2023/07/15 03:00:41;;;;;;;3.67;2.83;;;;;;;;;;4936481;29;20079;-64
2023/07/15 03:03:07;;;;;;;5.43;3.70;;;;;;;;;;4933000;29;20028;-64
2023/07/15 03:05:33;;;;;;;4.00;2.85;;;;;;;;;;4936099;29;20023;-65
2023/07/15 03:07:59;;;;;;;3.00;2.45;;;;;;;;;;4919573;29;20385;-65
2023/07/15 03:10:26;;;;;;;3.80;2.90;;;;;;;;;;4939344;29;20028;-65
2023/07/15 03:12:52;;;;;;;6.18;3.25;;;;;;;;;;4935845;29;20032;-65
2023/07/15 03:15:18;;;;;;;3.65;3.35;;;;;;;;;;4934933;29;20023;-65
2023/07/15 03:17:44;;;;;;;3.58;2.88;;;;;;;;;;4921729;29;20031;-67
2023/07/15 03:20:20;;;;;;;7.28;4.05;;;;;;;;;;4932407;29;20035;-65
2023/07/15 03:22:47;;;;;;;4.43;3.33;;;;;;;;;;4929333;29;20503;-65
2023/07/15 03:25:14;;;;;;;4.78;3.08;;;;;;;;;;4935848;29;20477;-64
2023/07/15 03:27:40;;;;;;;3.63;2.95;;;;;;;;;;4936231;29;20038;-65
2023/07/15 03:30:07;;;;;;;3.60;2.78;;;;;;;;;;4935032;29;20035;-64
2023/07/15 03:32:34;;;;;;;3.10;2.75;;;;;;;;;;4919998;29;20039;-64
2023/07/15 03:35:01;;;;;;;5.60;3.05;;;;;;;;;;4934309;29;20516;-64
2023/07/15 03:37:27;;;;;;;3.45;2.80;;;;;;;;;;4932718;29;20470;-65
2023/07/15 03:39:52;;;;;;;3.35;3.05;;;;;;;;;;4933288;29;20038;-65
2023/07/15 03:42:18;;;;;;;6.28;3.22;;;;;;;;;;4925772;29;20056;-64
2023/07/15 03:44:44;;;;;;;4.05;3.30;;;;;;;;;;4932788;29;20106;-66
2023/07/15 03:47:10;;;;;;;3.08;2.78;;;;;;;;;;4932216;29;20090;-65
2023/07/15 03:49:36;;;;;;;8.43;3.72;;;;;;;;;;4935226;29;20034;-64
2023/07/15 03:52:02;;;;;;;5.20;3.45;;;;;;;;;;4934950;29;20028;-64
2023/07/15 03:54:29;;;;;;;3.92;3.17;;;;;;;;;;4929469;29;20075;-64
2023/07/15 03:56:55;;;;;;;5.18;3.08;;;;;;;;;;4928753;29;20028;-64
2023/07/15 03:59:21;;;;;;;3.90;3.08;;;;;;;;;;4934957;29;20028;-65
2023/07/15 04:01:47;;;;;;;4.50;3.00;;;;;;;;;;4934909;29;20107;-65
2023/07/15 04:04:13;;;;;;;4.28;3.10;;;;;;;;;;4935100;29;20030;-64
2023/07/15 04:06:39;;;;;;;5.18;3.10;;;;;;;;;;4935464;29;20031;-64
2023/07/15 04:09:06;;;;;;;3.80;3.05;;;;;;;;;;4934480;29;20023;-64
2023/07/15 04:11:32;;;;;;;3.80;3.30;;;;;;;;;;4932074;29;20031;-64
2023/07/15 04:13:59;;;;;;;3.45;3.10;;;;;;;;;;4933923;29;20354;-64
2023/07/15 04:16:25;;;;;;;8.00;3.65;;;;;;;;;;4935350;29;20370;-65
2023/07/15 04:18:51;;;;;;;6.28;3.53;;;;;;;;;;4934050;29;20032;-65
2023/07/15 04:21:17;;;;;;;4.28;3.17;;;;;;;;;;4934730;29;20028;-65
2023/07/15 04:23:43;;;;;;;4.40;3.08;;;;;;;;;;4935114;29;20020;-65
2023/07/15 04:26:09;;;;;;;3.55;3.22;;;;;;;;;;4934441;29;20362;-63
2023/07/15 04:28:35;;;;;;;4.57;3.60;;;;;;;;;;4928447;29;20043;-63
2023/07/15 04:31:01;;;;;;;4.78;3.55;;;;;;;;;;4929185;29;20036;-63
2023/07/15 04:33:27;;;;;;;3.90;2.95;;;;;;;;;;4934898;29;20028;-66
2023/07/15 04:35:53;;;;;;;6.20;3.28;;;;;;;;;;4914557;29;20485;-68
2023/07/15 04:38:22;;;;;;;4.47;3.13;;;;;;;;;;4915761;29;20097;-65
2023/07/15 04:40:48;;;;;;;6.35;3.10;;;;;;;;;;4915749;29;20076;-66
2023/07/15 04:43:14;;;;;;;5.32;3.40;;;;;;;;;;4932112;29;20030;-66
2023/07/15 04:45:40;;;;;;;4.45;3.28;;;;;;;;;;4931336;29;20023;-66
2023/07/15 04:48:06;;;;;;;6.75;3.47;;;;;;;;;;4933788;29;20094;-66
2023/07/15 04:50:33;;;;;;;4.03;3.10;;;;;;;;;;4934258;29;20054;-65
2023/07/15 04:52:59;;;;;;;3.53;2.88;;;;;;;;;;4934044;29;20031;-65
2023/07/15 04:55:25;;;;;;;4.93;3.10;;;;;;;;;;4912633;29;20048;-65
2023/07/15 04:57:51;;;;;;;3.80;3.08;;;;;;;;;;4933926;29;20095;-65
2023/07/15 05:00:20;;;;;;;4.10;2.63;;;;;;;;;;4934078;29;20470;-65
2023/07/15 05:02:46;;;;;;;4.30;2.95;;;;;;;;;;4925944;29;20028;-68
2023/07/15 05:05:14;;;;;;;4.00;3.13;;;;;;;;;;4930922;29;20028;-66
2023/07/15 05:07:40;;;;;;;5.57;3.05;;;;;;;;;;4934154;29;20086;-66
2023/07/15 05:10:06;;;;;;;3.95;3.00;;;;;;;;;;4914753;29;20485;-65
2023/07/15 05:12:32;;;;;;;5.70;3.53;;;;;;;;;;4914905;29;20047;-65
2023/07/15 05:14:58;;;;;;;3.60;3.15;;;;;;;;;;4917904;29;20032;-65
2023/07/15 05:17:25;;;;;;;6.65;3.40;;;;;;;;;;4918003;29;20568;-66
2023/07/15 05:19:51;;;;;;;5.57;3.38;;;;;;;;;;4911846;29;20036;-65
2023/07/15 05:22:18;;;;;;;5.97;3.63;;;;;;;;;;4917784;29;20789;-66
2023/07/15 05:24:44;;;;;;;88.10;42.75;;;;;;;;;;4913178;29;20122;-67
2023/07/15 05:27:10;;;;;;;8.20;4.75;;;;;;;;;;4929763;29;20527;-65
2023/07/15 05:29:36;;;;;;;5.20;3.83;;;;;;;;;;4932397;29;20043;-65
2023/07/15 05:32:03;;;;;;;7.45;3.78;;;;;;;;;;4932724;29;20059;-65
2023/07/15 05:34:29;;;;;;;6.47;3.42;;;;;;;;;;4932142;29;20076;-66
2023/07/15 05:36:55;;;;;;;5.70;3.05;;;;;;;;;;4921034;29;20032;-65
2023/07/15 05:39:21;;;;;;;4.32;3.20;;;;;;;;;;4913950;29;20028;-65
2023/07/15 05:41:47;;;;;;;4.57;2.80;;;;;;;;;;4917404;29;20083;-65
2023/07/15 05:44:13;;;;;;;3.72;3.40;;;;;;;;;;4922038;29;20028;-67
2023/07/15 05:46:39;;;;;;;7.05;3.38;;;;;;;;;;4933031;29;20036;-65
2023/07/15 05:49:05;;;;;;;3.90;3.35;;;;;;;;;;4931853;29;20488;-65
2023/07/15 05:51:36;;;;;;;4.25;2.92;;;;;;;;;;4932922;29;20046;-64
2023/07/15 05:54:03;;;;;;;8.48;3.22;;;;;;;;;;4904333;29;20044;-65
2023/07/15 05:56:29;;;;;;;3.53;3.22;;;;;;;;;;4925415;29;20039;-64
2023/07/15 05:58:55;;;;;;;3.58;3.13;;;;;;;;;;4933323;29;20059;-66
2023/07/15 06:01:21;;;;;;;3.50;3.10;;;;;;;;;;4933162;29;20141;-66
2023/07/15 06:03:48;;;;;;;5.38;3.55;;;;;;;;;;4932930;29;20027;-69
2023/07/15 06:06:14;;;;;;;3.75;3.25;;;;;;;;;;4933928;29;20042;-65
2023/07/15 06:08:40;;;;;;;5.53;3.20;;;;;;;;;;4934261;29;20027;-65
2023/07/15 06:11:06;;;;;;;4.43;3.05;;;;;;;;;;4922759;29;20845;-66
2023/07/15 06:13:32;;;;;;;6.90;2.95;;;;;;;;;;4933781;29;20035;-66
2023/07/15 06:15:58;;;;;;;7.72;3.17;;;;;;;;;;4933120;29;20028;-65
2023/07/15 06:18:23;;;;;;;3.38;2.50;;;;;;;;;;4934683;29;20028;-66
2023/07/15 06:20:50;;;;;;;5.55;3.22;;;;;;;;;;4935656;29;20038;-66
2023/07/15 06:23:16;;;;;;;3.15;2.60;;;;;;;;;;4936124;29;20028;-67
2023/07/15 06:25:42;;;;;;;4.65;3.03;;;;;;;;;;4917345;29;20034;-73
2023/07/15 06:28:08;;;;;;;4.55;2.53;;;;;;;;;;4925942;29;20031;-66
2023/07/15 06:30:34;;;;;;;3.92;2.53;;;;;;;;;;4937083;29;20027;-67
2023/07/15 06:33:00;;;;;;;2.70;2.50;;;;;;;;;;4937355;29;20050;-62
2023/07/15 06:35:26;;;;;;;3.55;2.50;;;;;;;;;;4936496;29;20489;-62
2023/07/15 06:37:52;;;;;;;4.55;2.80;;;;;;;;;;4922712;29;20040;-63
2023/07/15 06:40:18;;;;;;;4.47;2.50;;;25.50;99.90;;;;;;4924231;29;20024;-63
2023/07/15 06:42:45;;;;;;;5.15;2.70;;;25.50;96.40;;;;;;4913122;29;20046;-65
2023/07/15 06:45:12;;;;;;;3.60;2.40;;;25.60;95.90;;;;;;4915634;29;20028;-62
2023/07/15 06:47:38;;;;;;;3.10;2.72;;;25.70;96.10;;;;;;4926348;29;20034;-63
2023/07/15 06:50:04;;;;;;;5.15;2.75;;;25.90;95.00;;;;;;4922265;29;20061;-63
2023/07/15 06:52:29;;;;;;;3.10;2.80;;;26.10;94.90;;;;;;4930647;29;20470;-62
2023/07/15 06:54:55;;;;;;;6.03;2.38;;;26.30;94.80;;;;;;4931247;29;20512;-62
2023/07/15 06:57:21;;;;;;;2.92;2.28;;;26.30;94.30;;;;;;4935866;29;20050;-62
2023/07/15 06:59:47;;;;;;;3.10;2.70;;;26.50;94.00;;;;;;4915488;29;20067;-65
2023/07/15 07:02:13;;;;;;;3.65;2.30;;;26.60;93.90;;;;;;4932595;29;20034;-63
2023/07/15 07:04:38;;;;;;;4.75;2.65;;;26.80;93.70;;;;;;4935434;29;20027;-63
2023/07/15 07:07:04;;;;;;;4.15;2.22;;;27.00;93.30;;;;;;4932126;29;20091;-62
2023/07/15 07:09:30;;;;;;;2.85;2.28;;;27.30;92.60;;;;;;4934214;29;20107;-62
2023/07/15 07:11:55;;;;;;;2.63;2.38;;;27.40;91.90;;;;;;4934495;29;20482;-62
2023/07/15 07:14:21;;;;;;;5.88;2.30;;;27.60;91.60;;;;;;4935153;29;20155;-61
2023/07/15 07:16:46;;;;;;;5.35;2.60;;;27.90;91.60;;;;;;4922329;29;20466;-77
2023/07/15 07:19:12;;;;;;;3.50;2.30;;;28.00;90.80;;;;;;4917272;29;20039;-69
2023/07/15 07:21:38;;;;;;;2.53;2.22;;;28.30;91.30;;;;;;4930950;29;20469;-69
2023/07/15 07:24:04;;;;;;;4.85;2.35;;;28.50;98.30;;;;;;4933646;29;20102;-75
2023/07/15 07:26:30;;;;;;;2.47;2.28;;;28.60;96.10;;;;;;4924271;29;20036;-73
2023/07/15 07:28:56;;;;;;;2.72;2.20;;;28.70;96.10;;;;;;4924542;29;20040;-71
2023/07/15 07:31:21;;;;;;;6.28;2.40;;;28.80;95.20;;;;;;4935352;29;20031;-74
2023/07/15 07:33:47;;;;;;;3.50;2.47;;;29.00;95.30;;;;;;4934052;29;20512;-78
2023/07/15 07:36:13;;;;;;;5.68;2.70;;;29.10;94.70;;;;;;4932500;29;20042;-76
2023/07/15 07:38:38;;;;;;;4.45;2.53;;;29.20;94.90;;;;;;4934520;29;20032;-74
2023/07/15 07:41:11;;;;;;;3.50;2.28;;;29.30;95.60;;;;;;4907078;29;20072;-74
2023/07/15 07:43:38;;;;;;;4.00;2.60;;;29.40;96.70;;;;;;4903012;29;20032;-75
2023/07/15 07:46:06;;;;;;;3.20;2.60;;;29.50;92.20;;;;;;4933132;29;20049;-72
2023/07/15 07:48:32;;;;;;;4.60;2.42;;;29.70;92.70;;;;;;4924011;29;20505;-79
2023/07/15 07:50:59;;;;;;;3.55;2.63;;;29.80;98.80;;;;;;4925752;29;20107;-75
2023/07/15 07:53:25;;;;;;;6.85;2.58;;;30.00;98.40;;;;;;4916539;29;20028;-74
2023/07/15 07:55:51;;;;;;;3.28;2.78;;;30.10;97.40;;;;;;4933179;29;20036;-74
2023/07/15 07:58:17;;;;;;;4.95;2.33;;;30.20;95.40;;;;;;4934560;29;20389;-73
2023/07/15 08:00:43;;;;;;;4.35;2.10;;;30.40;98.30;;;;;;4933545;29;20058;-73
2023/07/15 08:03:09;;;;;;;4.97;2.63;;;30.50;79.10;;;;;;4928368;29;20115;-80
2023/07/15 08:05:43;;;;;;;2.28;2.08;;;30.60;78.90;;;;;;4917835;29;20671;-84
2023/07/15 08:08:10;;;;;;;3.13;2.42;;;30.70;78.10;;;;;;4913418;29;20032;-74
2023/07/15 08:10:36;;;;;;;2.45;2.15;;;30.60;78.00;;;;;;4923806;29;20051;-86
2023/07/15 08:13:03;;;;;;;5.97;2.42;;;30.80;77.80;;;;;;4922168;29;20668;-88
2023/07/15 08:15:29;;;;;;;4.78;2.67;;;31.00;77.50;;;;;;4919165;29;20044;-89
2023/07/15 08:17:55;;;;;;;2.90;2.50;;;31.40;77.30;;;;;;4928573;29;20114;-78
2023/07/15 08:20:21;;;;;;;3.90;2.50;;;31.80;76.50;;;;;;4916904;29;20036;-80
2023/07/15 08:22:46;;;;;;;10.93;2.72;;;32.10;74.60;;;;;;4924681;29;20078;-82
2023/07/15 08:25:12;;;;;;;11.68;2.80;;;32.20;74.00;;;;;;4934458;29;20110;-82
2023/07/15 08:27:37;;;;;;;3.92;2.40;;;32.20;73.80;;;;;;4923625;29;20410;-77
2023/07/15 08:30:04;;;;;;;6.53;2.80;;;32.30;73.70;;;;;;4932515;29;20040;-80
2023/07/15 08:32:30;;;;;;;4.43;2.78;;;32.40;73.40;;;;;;4934011;29;20034;-76
2023/07/15 08:35:04;;;;;;;4.18;2.75;;;32.40;72.90;;;;;;4932146;29;20126;-75
2023/07/15 08:37:29;;;;;;;4.70;2.40;;;32.40;72.30;;;;;;4933333;29;20039;-84
2023/07/15 08:39:55;;;;;;;2.60;2.30;;;32.40;71.70;;;;;;4930247;29;20489;-80
2023/07/15 08:42:23;;;;;;;3.50;2.15;;;32.30;71.20;;;;;;4917364;29;20154;-73
2023/07/15 08:44:52;;;;;;;3.38;2.35;;;32.40;70.90;;;;;;4914837;29;20107;-80
2023/07/15 08:47:21;;;;;;;2.50;2.30;;;32.50;70.80;;;;;;4932788;29;20054;-75
2023/07/15 08:49:48;;;;;;;3.83;2.50;;;32.70;70.80;;;;;;4923261;29;20284;-73
2023/07/15 08:52:19;;;;;;;3.55;2.53;;;32.80;70.80;;;;;;4931109;29;20023;-82
2023/07/15 08:54:52;;;;;;;4.00;2.53;;;32.80;70.40;;;;;;4912414;29;20040;-75
2023/07/15 08:57:19;;;;;;;10.27;2.33;;;32.90;70.50;;;;;;4932344;29;20047;-75
2023/07/15 08:59:56;;;;;;;3.30;2.55;;;;;;;;;;4933167;29;20106;-74
2023/07/15 09:02:22;;;;;;;9.63;2.53;;;33.20;85.80;;;;;;4923838;29;20380;-75
2023/07/15 09:04:48;;;;;;;2.65;2.30;;;33.30;69.50;;;;;;4933194;29;20053;-75
2023/07/15 09:07:13;;;;;;;3.75;2.42;;;33.30;68.50;;;;;;4934248;29;20087;-76
2023/07/15 09:09:39;;;;;;;5.40;2.40;;;33.30;68.60;;;;;;4933788;29;20448;-75
2023/07/15 09:12:10;;;;;;;4.13;2.58;;;33.30;68.20;;;;;;4933740;29;20391;-76
2023/07/15 09:14:46;;;;;;;11.65;3.33;;;33.50;67.80;;;;;;4933970;29;20066;-76
2023/07/15 09:17:24;;;;;;;6.30;2.45;;;33.60;66.40;;;;;;4931099;29;20040;-76
2023/07/15 09:19:49;;;;;;;6.05;2.42;;;33.80;65.50;;;;;;4933237;29;20470;-76
2023/07/15 09:22:16;;;;;;;2.25;2.10;;;33.80;65.40;;;;;;4934160;29;20106;-76
2023/07/15 09:24:42;;;;;;;2.70;2.50;;;33.80;65.40;;;;;;4933760;29;20055;-75
2023/07/15 09:27:08;;;;;;;5.25;2.50;;;33.70;65.10;;;;;;4933832;29;20070;-76
2023/07/15 09:29:34;;;;;;;6.53;2.50;;;33.70;65.40;;;;;;4933381;29;20029;-76
2023/07/15 09:31:59;;;;;;;2.70;2.40;;;33.60;65.40;;;;;;4933343;29;20381;-76
2023/07/15 09:34:25;;;;;;;7.00;2.28;;;33.60;65.70;;;;;;4928082;29;20051;-76
2023/07/15 09:36:52;;;;;;;2.45;2.25;;;33.70;64.60;;;;;;4925451;29;20035;-76
2023/07/15 09:39:22;;;;;;;4.43;2.55;;;33.80;65.00;;;;;;4931448;29;20076;-76
2023/07/15 09:42:03;;;;;;;4.18;2.10;;;34.10;64.60;;;;;;4919540;29;20063;-75
2023/07/15 09:44:40;;;;;;;2.95;2.42;;;34.30;64.50;;;;;;4924900;29;20055;-76
2023/07/15 09:47:08;;;;;;;2.80;2.58;;;;;;;;;;4933395;29;20075;-76
2023/07/15 09:49:35;;;;;;;6.05;2.53;;;;;;;;;;4933697;29;20027;-76
2023/07/15 09:52:02;;;;;;;3.08;2.30;;;;;;;;;;4928228;29;20052;-76
2023/07/15 09:54:29;;;;;;;2.80;2.50;;;;;;;;;;4924658;29;20024;-76
2023/07/15 09:57:10;;;;;;;3.95;2.40;;;;;;;;;;4937138;29;20035;-76
2023/07/15 09:59:56;;;;;;;2.70;2.50;;;;;;;;;;4937356;29;20027;-76
2023/07/15 10:02:33;;;;;;;3.15;1.92;;;;;;;;;;4937870;29;20056;-75
2023/07/15 10:05:05;;;;;;;3.47;2.60;;;;;;;;;;4937005;29;20430;-76
2023/07/15 10:07:32;;;;;;;5.22;2.50;;;;;;;;;;4937597;29;20032;-76
2023/07/15 10:10:01;;;;;;;3.22;2.35;;;;;;;;;;4925000;29;20055;-76
2023/07/15 10:12:28;;;;;;;3.37;2.30;;;;;;;;;;4937959;29;20474;-76
2023/07/15 10:14:54;;;;;;;2.35;2.15;;;;;;;;;;4936441;29;20277;-76
2023/07/15 10:17:20;;;;;;;4.63;2.20;;;;;;;;;;4937602;29;20549;-76
2023/07/15 10:20:02;;;;;;;4.75;2.13;;;;;;;;;;4936473;29;20103;-76
2023/07/15 10:22:32;;;;;;;5.97;2.38;;;;;;;;;;4937288;29;20020;-76
2023/07/15 10:24:58;;;;;;;2.92;2.17;;;;;;;;;;4934531;29;20048;-76
2023/07/15 10:27:31;;;;;;;4.07;1.92;;;;;;;;;;4936035;29;20059;-76
2023/07/15 10:30:16;;;;;;;2.45;2.03;;;;;;;;;;4935713;29;20031;-76
2023/07/15 10:33:00;;;;;;;3.25;2.22;;;;;;;;;;4920198;29;20023;-75
2023/07/15 10:35:45;;;;;;;2.83;2.47;;;;;;;;;;4936137;29;20050;-78
2023/07/15 10:38:28;;;;;;;2.97;2.50;;;;;;;;;;4933045;29;20023;-77
2023/07/15 10:41:02;;;;;;;2.80;2.33;;;;;;;;;;4925843;29;20028;-75
2023/07/15 10:43:34;;;;;;;5.10;2.20;;;;;;;;;;4925050;29;20036;-75
2023/07/15 10:46:02;;;;;;;1.90;1.80;;;;;;;;;;4935772;29;20026;-82
2023/07/15 10:48:28;;;;;;;4.18;2.40;;;;;;;;;;4936818;29;20030;-75
2023/07/15 10:50:54;;;;;;;2.80;1.88;;;;;;;;;;4935625;29;20024;-76
2023/07/15 10:53:22;;;;;;;2.22;1.98;;;;;;;;;;4925977;29;20024;-75
2023/07/15 10:56:00;;;;;;;2.30;2.20;;;;;;;;;;4935735;29;20086;-84
2023/07/15 10:58:27;;;;;;;2.58;2.38;;;;;;;;;;4936524;29;20481;-75
2023/07/15 11:00:58;;;;;;;2.20;2.03;;;;;;;;;;4932418;29;20087;-75
2023/07/15 11:03:24;;;;;;;4.90;2.47;;;;;;;;;;4936679;29;20020;-75
2023/07/15 11:05:50;;;;;;;2.97;1.75;;;;;;;;;;4934462;29;20495;-75
2023/07/15 11:08:19;;;;;;;2.88;2.10;;;;;;;;;;4936436;29;20048;-75
2023/07/15 11:10:45;;;;;;;5.43;2.20;;;;;;;;;;4935497;29;20091;-75
2023/07/15 11:13:15;;;;;;;4.55;2.33;;;;;;;;;;4936005;29;20028;-75
2023/07/15 11:15:40;;;;;;;;;;;;;;;;;;4936471;29;20361;-75
2023/07/15 11:18:06;;;;;;;4.72;2.10;;;;;;;;;;4924508;29;19911;-75
2023/07/15 11:20:33;;;;;;;2.13;2.03;;;;;;;;;;4935846;29;20034;-75
2023/07/15 11:23:02;;;;;;;2.58;1.98;;;;;;;;;;4935616;29;20059;-75
2023/07/15 11:25:29;;;;;;;2.72;2.35;;;;;;;;;;4935884;29;20035;-75
2023/07/15 11:27:59;;;;;;;4.63;2.53;;;;;;;;;;4935392;29;20390;-75
2023/07/15 11:30:33;;;;;;;2.92;2.00;;;;;;;;;;4935879;29;20024;-76
2023/07/15 11:32:59;;;;;;;3.00;2.20;;;;;;;;;;4933862;29;20030;-76
2023/07/15 11:35:25;;;;;;;2.00;1.88;;;;;;;;;;4932550;29;20044;-75
2023/07/15 11:37:51;;;;;;;2.72;2.08;;;;;;;;;;4921382;29;20524;-75
2023/07/15 11:40:17;;;;;;;2.80;2.20;;;;;;;;;;4930845;29;20099;-75
2023/07/15 11:42:44;;;;;;;2.83;2.33;;;;;;;;;;4929279;29;20027;-75
2023/07/15 11:45:10;;;;;;;2.05;1.95;;;;;;;;;;4935174;29;20020;-75
2023/07/15 11:47:36;;;;;;;2.53;2.20;;;;;;;;;;4935594;29;20067;-75
2023/07/15 11:50:03;;;;;;;2.42;2.22;;;;;;;;;;4932781;29;20119;-74
2023/07/15 11:52:39;;;;;;;2.80;2.45;;;;;;;;;;4916926;29;20075;-75
2023/07/15 11:55:05;;;;;;;2.35;2.15;;;;;;;;;;4930779;29;20094;-75
2023/07/15 11:57:31;;;;;;;2.97;2.42;;;;;;;;;;4918254;29;20032;-75
2023/07/15 11:59:57;;;;;;;3.08;2.30;;;;;;;;;;4917173;29;20039;-75
2023/07/15 12:02:23;;;;;;;5.07;2.47;;;;;;;;;;4918016;29;20063;-74
2023/07/15 12:04:49;;;;;;;4.43;2.58;;;;;;;;;;4917314;29;20119;-74
2023/07/15 12:07:15;;;;;;;2.80;2.45;;;;;;;;;;4925249;29;20040;-74
2023/07/15 12:09:41;;;;;;;3.28;2.60;;;;;;;;;;4916198;29;20046;-74
2023/07/15 12:12:07;;;;;;;2.97;2.03;;;;;;;;;;4930958;29;20031;-74
2023/07/15 12:14:34;;;;;;;4.28;2.60;;;;;;;;;;4923147;29;20032;-73
2023/07/15 12:17:02;;;;;;;2.65;2.13;;;;;;;;;;4925577;29;20111;-73
2023/07/15 12:19:31;;;;;;;3.45;2.47;;;;;;;;;;4932719;29;20462;-73
2023/07/15 12:21:57;;;;;;;6.65;3.15;;;;;;;;;;4933134;29;20024;-73
2023/07/15 12:24:23;;;;;;;8.20;2.85;;;;;;;;;;4929039;29;20035;-71
2023/07/15 12:26:49;;;;;;;6.40;2.67;;;;;;;;;;4926432;29;20385;-72
2023/07/15 12:29:15;;;;;;;6.85;2.70;;;;;;;;;;4933543;29;20110;-71
2023/07/15 12:31:42;;;;;;;4.82;2.88;;;;;;;;;;4933659;29;20028;-74
2023/07/15 12:34:08;;;;;;;3.40;3.10;;;;;;;;;;4926170;29;20056;-72
2023/07/15 12:36:34;;;;;;;5.50;2.70;;;;;;;;;;4915689;29;20036;-72
2023/07/15 12:39:00;;;;;;;6.82;2.67;;;;;;;;;;4922669;29;20482;-74
2023/07/15 12:41:26;;;;;;;3.67;3.05;;;;;;;;;;4919352;29;20016;-80
2023/07/15 12:43:52;;;;;;;6.35;2.88;;;;;;;;;;4911684;29;20036;-75
2023/07/15 12:46:18;;;;;;;6.00;2.88;;;;;;;;;;4909712;29;20028;-75
2023/07/15 12:48:46;;;;;;;5.88;2.90;;;;;;;;;;4916173;29;20051;-75
2023/07/15 12:51:12;;;;;;;4.40;2.88;;;;;;;;;;4914780;29;20046;-73
2023/07/15 12:53:37;;;;;;;5.80;2.40;;;;;;;;;;4910623;29;20466;-73
2023/07/15 12:56:04;;;;;;;5.30;2.80;;;;;;;;;;4912100;29;20050;-75
2023/07/15 12:58:30;;;;;;;2.80;2.45;;;;;;;;;;4909554;29;20107;-75
2023/07/15 13:00:57;;;;;;;2.90;2.33;;;;;;;;;;4906842;29;20172;-73
2023/07/15 13:03:26;;;;;;;2.55;2.35;;;;;;;;;;4891039;29;20031;-74
2023/07/15 13:05:52;;;;;;;3.20;2.70;;;;;;;;;;4914175;29;20032;-75
2023/07/15 13:08:18;;;;;;;4.32;2.22;;;;;;;;;;4907262;29;20032;-77
2023/07/15 13:10:44;;;;;;;14.82;3.08;;;;;;;;;;4903584;29;20036;-78
2023/07/15 13:13:10;;;;;;;2.83;2.00;;;;;;;;;;4885821;29;20493;-75
2023/07/15 13:15:36;;;;;;;5.95;2.60;;;37.70;90.70;;;;;;4925281;29;20788;-73
2023/07/15 13:18:01;;;;;;;2.65;2.42;;;38.10;87.20;;;;;;4919699;29;20035;-74
2023/07/15 13:20:27;;;;;;;2.25;2.05;;;38.10;78.30;;;;;;4931642;29;20384;-74
2023/07/15 13:22:52;;;;;;;5.45;2.58;;;38.30;78.80;;;;;;4931256;29;20435;-75
2023/07/15 13:25:21;;;;;;;4.20;2.38;;;38.30;79.30;;;;;;4931703;29;20050;-76
2023/07/15 13:27:50;;;;;;;2.70;2.50;;;38.20;78.60;;;;;;4931474;29;20469;-76
2023/07/15 13:30:18;;;;;;;2.30;2.10;;;38.10;78.60;;;;;;4931602;29;20036;-76
2023/07/15 13:32:44;;;;;;;2.30;2.20;;;37.90;79.00;;;;;;4924067;29;20036;-76
2023/07/15 13:35:09;;;;;;;4.40;2.97;;;37.60;79.60;;;;;;4889833;29;1126055;-75
2023/07/15 13:37:35;;;;;;;3.97;2.50;;;37.60;80.10;;;;;;4913730;29;20032;-74
2023/07/15 13:40:01;;;;;;;3.38;2.60;;;37.70;79.60;;;;;;4913203;29;20063;-74
2023/07/15 13:42:26;;;;;;;2.40;2.20;;;37.90;79.60;;;;;;4923743;29;20031;-74
2023/07/15 13:44:52;;;;;;;3.28;2.95;;;37.90;78.60;;;;;;4931757;29;20036;-77
2023/07/15 13:47:18;;;;;;;5.07;2.80;;;37.80;80.80;;;;;;4932545;29;20032;-76
2023/07/15 13:49:44;;;;;;;5.35;2.60;;;37.70;81.00;;;;;;4928964;29;20038;-78
2023/07/15 13:52:10;;;;;;;7.18;2.75;;;37.60;81.10;;;;;;4931901;29;20028;-76
2023/07/15 13:54:35;;;;;;;5.85;2.95;;;37.40;81.80;;;;;;4931059;29;20060;-75
2023/07/15 13:57:01;;;;;;;5.88;2.90;;;37.10;82.20;;;;;;4932430;29;20111;-78
2023/07/15 13:59:27;;;;;;;4.28;2.60;;;36.90;83.10;;;;;;4932125;29;20035;-75
2023/07/15 14:01:53;;;;;;;5.13;2.70;;;36.60;83.30;;;;;;4932290;29;20027;-74